createdAt,value
2023-04-29T00:02:31.202Z,46.20
2023-04-29T00:05:29.276Z,50.40
2023-04-29T00:08:39.646Z,47.60
2023-04-29T00:11:48.242Z,47.00
2023-04-29T00:14:56.066Z,47.70
2023-04-29T00:18:06.983Z,46.70
2023-04-29T00:21:15.484Z,49.20
2023-04-29T00:24:23.856Z,54.90
2023-04-29T00:27:33.182Z,52.70
2023-04-29T00:30:40.893Z,56.00
2023-04-29T00:33:48.645Z,59.00
2023-04-29T00:36:57.226Z,52.70
2023-04-29T00:40:06.427Z,59.40
2023-04-29T00:43:14.245Z,56.20
2023-04-29T00:46:22.083Z,55.70
2023-04-29T00:49:31.258Z,57.20
2023-04-29T00:52:39.192Z,59.90
2023-04-29T00:55:46.999Z,68.70
2023-04-29T00:58:56.084Z,62.40
2023-04-29T01:02:03.995Z,66.60
2023-04-29T01:05:11.786Z,69.00
2023-04-29T01:08:20.962Z,73.30
2023-04-29T01:11:29.023Z,85.30
2023-04-29T01:14:36.941Z,78.50
2023-04-29T01:17:44.823Z,80.50
2023-04-29T01:20:53.997Z,85.60
2023-04-29T01:24:01.894Z,80.30
2023-04-29T01:27:10.049Z,85.00
2023-04-29T01:30:19.275Z,85.50
2023-04-29T01:33:26.964Z,87.80
2023-04-29T01:36:34.655Z,88.00
2023-04-29T01:39:43.719Z,86.90
2023-04-29T01:42:51.674Z,85.10
2023-04-29T01:45:59.413Z,94.40
2023-04-29T01:49:08.585Z,89.30
2023-04-29T01:52:16.310Z,89.00
2023-04-29T01:55:24.085Z,86.40
2023-04-29T01:58:33.494Z,89.60
2023-04-29T02:01:41.218Z,90.70
2023-04-29T02:04:48.970Z,96.00
2023-04-29T02:07:56.690Z,96.40
2023-04-29T02:11:05.765Z,102.80
2023-04-29T02:14:13.465Z,99.30
2023-04-29T02:17:21.476Z,100.30
2023-04-29T02:20:30.755Z,109.30
2023-04-29T02:23:38.610Z,101.20
2023-04-29T02:26:46.377Z,102.10
2023-04-29T02:29:55.675Z,93.80
2023-04-29T02:33:03.877Z,102.50
2023-04-29T02:36:12.483Z,97.00
2023-04-29T02:39:21.502Z,103.80
2023-04-29T02:42:29.187Z,102.40
2023-04-29T02:45:36.942Z,114.90
2023-04-29T02:48:44.768Z,126.70
2023-04-29T02:51:54.016Z,138.80
2023-04-29T02:55:01.827Z,142.00
2023-04-29T02:58:09.515Z,115.40
2023-04-29T03:01:18.709Z,128.60
2023-04-29T03:04:26.615Z,132.10
2023-04-29T03:07:34.563Z,148.90
2023-04-29T03:10:43.731Z,133.20
2023-04-29T03:13:51.615Z,135.80
2023-04-29T03:16:59.444Z,130.10
2023-04-29T03:20:09.467Z,138.10
2023-04-29T03:23:17.322Z,136.80
2023-04-29T03:26:26.052Z,130.00
2023-04-29T03:29:33.849Z,125.10
2023-04-29T03:32:43.168Z,123.50
2023-04-29T03:35:50.901Z,137.30
2023-04-29T03:38:58.820Z,117.00
2023-04-29T03:42:08.012Z,115.00
2023-04-29T03:45:16.587Z,111.80
2023-04-29T03:48:24.225Z,116.00
2023-04-29T03:51:33.445Z,104.10
2023-04-29T03:54:41.166Z,106.40
2023-04-29T03:57:48.818Z,101.90
2023-04-29T04:00:58.127Z,95.60
2023-04-29T04:04:05.956Z,103.10
2023-04-29T04:07:13.667Z,106.80
2023-04-29T04:10:22.841Z,100.10
2023-04-29T04:13:30.621Z,103.20
2023-04-29T04:16:38.447Z,100.50
2023-04-29T04:19:46.401Z,88.30
2023-04-29T04:22:55.599Z,81.90
2023-04-29T04:26:03.563Z,75.90
2023-04-29T04:29:11.266Z,65.90
2023-04-29T04:32:20.556Z,55.90
2023-04-29T04:35:28.317Z,54.90
2023-04-29T04:38:36.060Z,57.90
2023-04-29T04:41:45.265Z,55.20
2023-04-29T04:44:53.239Z,54.90
2023-04-29T04:48:01.155Z,53.40
2023-04-29T04:51:10.300Z,55.90
2023-04-29T04:54:18.302Z,52.30
2023-04-29T04:57:26.513Z,52.20
2023-04-29T05:00:34.247Z,55.20
2023-04-29T05:03:43.839Z,51.10
2023-04-29T05:06:51.776Z,51.20
2023-04-29T05:09:59.485Z,56.20
2023-04-29T05:13:08.698Z,53.90
2023-04-29T05:16:16.910Z,59.40
2023-04-29T05:19:24.688Z,60.80
2023-04-29T05:22:33.886Z,72.60
2023-04-29T05:25:41.876Z,59.70
2023-04-29T05:28:50.869Z,59.40
2023-04-29T05:32:00.384Z,62.10
2023-04-29T05:35:08.142Z,63.60
2023-04-29T05:38:16.179Z,72.60
2023-04-29T05:41:25.558Z,67.10
2023-04-29T05:44:33.735Z,62.50
2023-04-29T05:47:41.507Z,71.70
2023-04-29T05:50:49.186Z,75.30
2023-04-29T05:53:58.522Z,69.80
2023-04-29T05:57:06.107Z,52.60
2023-04-29T06:00:15.459Z,63.30
2023-04-29T06:03:14.912Z,66.00
2023-04-29T06:06:22.710Z,65.40
2023-04-29T06:09:30.761Z,63.50
2023-04-29T06:12:40.042Z,55.60
2023-04-29T06:15:48.091Z,61.70
2023-04-29T06:18:57.543Z,58.70
2023-04-29T06:22:07.521Z,54.40
2023-04-29T06:25:15.497Z,59.30
2023-04-29T06:28:23.445Z,54.00
2023-04-29T06:31:31.166Z,48.10
2023-04-29T06:34:40.444Z,52.10
2023-04-29T06:37:48.191Z,45.10
2023-04-29T06:40:56.083Z,40.80
2023-04-29T06:44:05.472Z,31.10
2023-04-29T06:47:13.441Z,29.70
2023-04-29T06:50:21.505Z,23.10
2023-04-29T06:53:30.667Z,20.40
2023-04-29T06:56:38.723Z,20.00
2023-04-29T06:59:46.880Z,20.30
2023-04-29T07:02:56.105Z,20.00
2023-04-29T07:06:03.788Z,16.00
2023-04-29T07:09:11.545Z,20.90
2023-04-29T07:12:20.428Z,21.10
2023-04-29T07:15:29.532Z,24.60
2023-04-29T07:18:37.989Z,24.40
2023-04-29T07:21:45.767Z,23.20
2023-04-29T07:24:55.170Z,22.20
2023-04-29T07:28:02.912Z,21.40
2023-04-29T07:31:11.053Z,24.00
2023-04-29T07:34:20.741Z,24.70
2023-04-29T07:37:28.518Z,25.80
2023-04-29T07:40:36.333Z,25.10
2023-04-29T07:43:45.464Z,26.20
2023-04-29T07:46:53.354Z,27.30
2023-04-29T07:50:00.994Z,23.80
2023-04-29T07:53:10.188Z,21.60
2023-04-29T07:56:17.891Z,24.50
2023-04-29T07:59:25.563Z,19.60
2023-04-29T08:02:33.931Z,20.40
2023-04-29T08:05:43.660Z,19.80
2023-04-29T08:08:51.324Z,20.50
2023-04-29T08:11:59.074Z,21.70
2023-04-29T08:15:09.744Z,20.40
2023-04-29T08:18:17.899Z,21.30
2023-04-29T08:21:25.675Z,19.80
2023-04-29T08:24:34.707Z,16.80
2023-04-29T08:27:42.551Z,16.90
2023-04-29T08:30:50.367Z,17.80
2023-04-29T08:33:59.519Z,15.90
2023-04-29T08:37:07.232Z,16.40
2023-04-29T08:40:15.111Z,14.10
2023-04-29T08:43:22.848Z,15.80
2023-04-29T08:46:32.075Z,16.90
2023-04-29T08:49:39.743Z,14.30
2023-04-29T08:52:47.441Z,15.10
2023-04-29T08:55:56.740Z,13.40
2023-04-29T08:59:04.509Z,13.20
2023-04-29T09:02:13.311Z,14.40
2023-04-29T09:05:22.895Z,14.50
2023-04-29T09:08:30.516Z,14.30
2023-04-29T09:11:39.113Z,11.60
2023-04-29T09:14:49.154Z,11.30
2023-04-29T09:17:56.883Z,11.90
2023-04-29T09:21:05.411Z,12.80
2023-04-29T09:24:14.106Z,12.80
2023-04-29T09:27:23.284Z,9.10
2023-04-29T09:30:31.836Z,10.60
2023-04-29T09:33:39.880Z,10.80
2023-04-29T09:36:49.379Z,10.40
2023-04-29T09:39:57.860Z,8.00
2023-04-29T09:43:05.846Z,10.10
2023-04-29T09:46:15.360Z,9.70
2023-04-29T09:49:23.937Z,8.70
2023-04-29T09:52:31.971Z,9.90
2023-04-29T09:55:41.582Z,8.90
2023-04-29T09:58:49.705Z,7.40
2023-04-29T10:01:58.473Z,9.30
2023-04-29T10:05:08.154Z,7.40
2023-04-29T10:08:16.106Z,8.80
2023-04-29T10:11:24.672Z,8.60
2023-04-29T10:14:32.325Z,8.80
2023-04-29T10:17:42.161Z,8.50
2023-04-29T10:20:50.677Z,7.60
2023-04-29T10:23:58.479Z,6.90
2023-04-29T10:27:08.334Z,8.10
2023-04-29T10:30:16.340Z,7.80
2023-04-29T10:33:24.975Z,7.20
2023-04-29T10:36:34.400Z,7.00
2023-04-29T10:39:42.729Z,7.30
2023-04-29T10:42:50.504Z,10.00
2023-04-29T10:46:00.623Z,6.50
2023-04-29T10:49:08.374Z,7.10
2023-04-29T10:52:17.024Z,7.50
2023-04-29T10:55:25.123Z,8.00
2023-04-29T10:58:34.230Z,6.80
2023-04-29T11:01:42.880Z,6.30
2023-04-29T11:04:50.925Z,8.70
2023-04-29T11:08:00.464Z,10.20
2023-04-29T11:11:08.963Z,6.40
2023-04-29T11:14:17.146Z,9.50
2023-04-29T11:17:28.347Z,9.50
2023-04-29T11:20:36.854Z,8.60
2023-04-29T11:23:45.026Z,8.00
2023-04-29T11:26:54.497Z,8.60
2023-04-29T11:30:02.778Z,7.20
2023-04-29T11:33:10.651Z,7.60
2023-04-29T11:36:20.141Z,9.20
2023-04-29T11:39:28.280Z,7.30
2023-04-29T11:42:36.029Z,6.60
2023-04-29T11:45:44.237Z,9.00
2023-04-29T11:48:53.842Z,6.00
2023-04-29T11:52:02.003Z,8.00
2023-04-29T11:55:10.425Z,8.30
2023-04-29T11:58:20.010Z,8.00
2023-04-29T12:01:28.263Z,6.20
2023-04-29T12:04:37.100Z,9.10
2023-04-29T12:07:46.672Z,11.00
2023-04-29T12:10:54.874Z,7.00
2023-04-29T12:14:03.344Z,8.20
2023-04-29T12:17:12.841Z,7.50
2023-04-29T12:20:21.779Z,8.00
2023-04-29T12:23:29.582Z,7.00
2023-04-29T12:26:38.145Z,10.90
2023-04-29T12:29:48.036Z,8.80
2023-04-29T12:32:55.880Z,8.20
2023-04-29T12:36:04.487Z,9.80
2023-04-29T12:39:14.397Z,8.30
2023-04-29T12:42:22.153Z,7.00
2023-04-29T12:45:30.759Z,7.70
2023-04-29T12:48:41.514Z,8.10
2023-04-29T12:51:49.623Z,7.40
2023-04-29T12:54:58.210Z,6.60
2023-04-29T12:58:07.765Z,7.80
2023-04-29T13:01:18.423Z,6.70
2023-04-29T13:04:16.205Z,5.70
2023-04-29T13:07:26.019Z,6.40
2023-04-29T13:10:34.492Z,6.10
2023-04-29T13:13:43.148Z,7.30
2023-04-29T13:16:51.500Z,6.90
2023-04-29T13:20:00.995Z,7.50
2023-04-29T13:23:09.134Z,7.60
2023-04-29T13:26:17.570Z,10.30
2023-04-29T13:29:27.307Z,6.60
2023-04-29T13:32:43.980Z,6.70
2023-04-29T13:35:41.371Z,6.80
2023-04-29T13:38:55.074Z,7.10
2023-04-29T13:41:58.344Z,5.60
2023-04-29T13:44:56.936Z,5.40
2023-04-29T13:48:20.103Z,8.10
2023-04-29T13:51:34.515Z,6.30
2023-04-29T13:58:02.790Z,6.10
2023-04-29T14:03:25.030Z,6.70
2023-04-29T14:06:33.272Z,5.30
2023-04-29T14:09:43.399Z,5.70
2023-04-29T14:12:51.902Z,5.30
2023-04-29T14:16:00.235Z,4.50
2023-04-29T14:19:10.041Z,5.50
2023-04-29T14:22:18.250Z,5.50
2023-04-29T14:25:28.488Z,4.70
2023-04-29T14:28:27.790Z,3.90
2023-04-29T14:31:36.837Z,5.00
2023-04-29T14:34:45.271Z,6.40
2023-04-29T14:37:53.340Z,5.40
2023-04-29T14:41:03.845Z,4.80
2023-04-29T14:44:12.279Z,4.40
2023-04-29T14:47:20.768Z,5.10
2023-04-29T14:50:30.600Z,5.10
2023-04-29T14:53:38.977Z,6.30
2023-04-29T14:56:47.783Z,4.90
2023-04-29T14:59:58.014Z,4.70
2023-04-29T15:03:06.475Z,6.50
2023-04-29T15:06:15.539Z,4.60
2023-04-29T15:09:25.974Z,4.40
2023-04-29T15:12:34.322Z,5.30
2023-04-29T15:15:42.985Z,6.40
2023-04-29T15:18:52.239Z,4.70
2023-04-29T15:22:02.579Z,5.50
2023-04-29T15:25:10.913Z,5.90
2023-04-29T15:28:19.946Z,6.20
2023-04-29T15:31:30.820Z,5.40
2023-04-29T15:34:39.653Z,4.90
2023-04-29T15:37:48.014Z,4.80
2023-04-29T15:40:57.901Z,5.30
2023-04-29T15:44:06.010Z,4.20
2023-04-29T15:47:15.489Z,4.80
2023-04-29T15:50:25.590Z,5.50
2023-04-29T15:53:34.683Z,4.50
2023-04-29T15:56:43.064Z,6.10
2023-04-29T15:59:53.469Z,7.20
2023-04-29T16:03:02.577Z,4.70
2023-04-29T16:06:11.187Z,4.60
2023-04-29T16:09:19.534Z,4.20
2023-04-29T16:12:29.440Z,4.90
2023-04-29T16:15:38.129Z,5.20
2023-04-29T16:18:46.164Z,4.00
2023-04-29T16:21:56.414Z,4.70
2023-04-29T16:25:05.097Z,4.60
2023-04-29T16:28:05.911Z,5.40
2023-04-29T16:28:49.151Z,4.70
2023-04-29T16:31:58.833Z,5.00
2023-04-29T16:35:08.488Z,6.40
2023-04-29T16:38:16.960Z,6.60
2023-04-29T16:41:26.790Z,5.90
2023-04-29T16:44:36.003Z,4.50
2023-04-29T16:47:44.402Z,5.30
2023-04-29T16:50:54.727Z,5.10
2023-04-29T16:54:03.062Z,7.00
2023-04-29T16:57:12.119Z,7.00
2023-04-29T17:00:20.700Z,5.60
2023-04-29T17:03:30.653Z,6.70
2023-04-29T17:06:40.106Z,6.70
2023-04-29T17:09:48.525Z,5.00
2023-04-29T17:12:59.170Z,7.30
2023-04-29T17:16:07.786Z,6.10
2023-04-29T17:19:16.646Z,7.70
2023-04-29T17:22:26.849Z,5.30
2023-04-29T17:25:35.153Z,6.00
2023-04-29T17:28:43.663Z,5.50
2023-04-29T17:31:53.880Z,9.10
2023-04-29T17:35:02.908Z,5.90
2023-04-29T17:38:11.725Z,7.50
2023-04-29T17:41:21.416Z,4.40
2023-04-29T17:44:30.701Z,7.00
2023-04-29T17:47:38.989Z,5.80
2023-04-29T17:50:48.267Z,6.30
2023-04-29T17:53:58.548Z,5.00
2023-04-29T17:57:07.319Z,7.30
2023-04-29T18:00:16.067Z,6.70
2023-04-29T18:03:26.601Z,7.10
2023-04-29T18:06:35.743Z,4.30
2023-04-29T18:09:44.622Z,7.60
2023-04-29T18:12:54.839Z,7.90
2023-04-29T18:16:03.542Z,6.60
2023-04-29T18:19:12.849Z,7.40
2023-04-29T18:22:23.190Z,5.30
2023-04-29T18:25:31.701Z,6.00
2023-04-29T18:28:40.112Z,6.60
2023-04-29T18:31:48.845Z,5.80
2023-04-29T18:34:58.358Z,6.40
2023-04-29T18:38:07.150Z,6.10
2023-04-29T18:38:50.532Z,7.00
2023-04-29T18:41:59.590Z,4.90
2023-04-29T18:45:00.475Z,10.10
2023-04-29T18:48:09.170Z,7.10
2023-04-29T18:51:17.776Z,11.40
2023-04-29T18:54:27.478Z,12.30
2023-04-29T18:57:35.967Z,5.80
2023-04-29T19:00:44.589Z,8.10
2023-04-29T19:03:55.336Z,8.90
2023-04-29T19:07:04.009Z,7.10
2023-04-29T19:10:12.441Z,6.30
2023-04-29T19:13:22.327Z,5.70
2023-04-29T19:16:31.291Z,5.70
2023-04-29T19:19:39.828Z,5.40
2023-04-29T19:22:49.156Z,5.90
2023-04-29T19:25:58.841Z,5.20
2023-04-29T19:29:07.264Z,5.20
2023-04-29T19:32:16.576Z,6.20
2023-04-29T19:35:26.305Z,7.60
2023-04-29T19:38:34.640Z,8.60
2023-04-29T19:41:43.472Z,5.40
2023-04-29T19:44:53.361Z,5.70
2023-04-29T19:48:02.351Z,5.00
2023-04-29T19:51:10.536Z,5.40
2023-04-29T19:54:11.100Z,3.20
2023-04-29T19:57:20.430Z,5.00
2023-04-29T20:00:29.483Z,5.10
2023-04-29T20:03:37.794Z,5.00
2023-04-29T20:06:48.240Z,3.70
2023-04-29T20:09:57.130Z,3.70
2023-04-29T20:13:05.734Z,8.40
2023-04-29T20:16:15.989Z,4.80
2023-04-29T20:19:24.285Z,6.10
2023-04-29T20:22:33.023Z,4.50
2023-04-29T20:25:43.831Z,5.50
2023-04-29T20:28:52.696Z,5.70
2023-04-29T20:32:01.654Z,8.70
2023-04-29T20:35:03.478Z,5.90
2023-04-29T20:38:13.158Z,4.20
2023-04-29T20:41:21.306Z,4.60
2023-04-29T20:44:31.390Z,4.40
2023-04-29T20:47:40.521Z,4.00
2023-04-29T20:50:49.461Z,5.80
2023-04-29T20:53:58.464Z,4.00
2023-04-29T20:57:08.655Z,5.30
2023-04-29T21:00:19.411Z,4.80
2023-04-29T21:03:27.975Z,4.20
2023-04-29T21:06:38.074Z,3.80
2023-04-29T21:09:46.969Z,3.70
2023-04-29T21:12:55.330Z,5.20
2023-04-29T21:16:05.134Z,4.60
2023-04-29T21:19:13.956Z,4.70
2023-04-29T21:22:22.793Z,8.70
2023-04-29T21:25:31.946Z,5.60
2023-04-29T21:28:40.383Z,5.40
2023-04-29T21:31:48.619Z,3.70
2023-04-29T21:34:57.219Z,5.10
2023-04-29T21:38:07.792Z,5.70
2023-04-29T21:41:16.175Z,5.60
2023-04-29T21:44:24.618Z,4.40
2023-04-29T21:47:34.552Z,6.70
2023-04-29T21:50:43.436Z,6.80
2023-04-29T21:53:52.418Z,7.20
2023-04-29T21:57:02.448Z,5.20
2023-04-29T22:00:10.648Z,7.60
2023-04-29T22:03:20.168Z,8.10
2023-04-29T22:06:29.949Z,7.10
2023-04-29T22:09:38.494Z,8.70
2023-04-29T22:12:47.038Z,6.60
2023-04-29T22:15:57.657Z,5.80
2023-04-29T22:19:05.955Z,5.00
2023-04-29T22:22:14.824Z,7.10
2023-04-29T22:25:23.618Z,6.60
2023-04-29T22:28:33.553Z,5.80
2023-04-29T22:31:42.617Z,8.10
2023-04-29T22:34:50.479Z,8.50
2023-04-29T22:38:00.545Z,8.10
2023-04-29T22:41:09.000Z,7.80
2023-04-29T22:44:17.964Z,7.90
2023-04-29T22:47:27.713Z,7.30
2023-04-29T22:50:36.538Z,8.80
2023-04-29T22:53:44.938Z,8.00
2023-04-29T22:56:55.341Z,9.60
2023-04-29T23:00:04.050Z,9.50
2023-04-29T23:03:12.435Z,13.00
2023-04-29T23:06:21.553Z,11.30
2023-04-29T23:09:31.633Z,9.90
2023-04-29T23:12:40.565Z,8.40
2023-04-29T23:15:49.480Z,8.90
2023-04-29T23:19:00.203Z,10.60
2023-04-29T23:22:08.630Z,9.50
2023-04-29T23:25:17.802Z,10.90
2023-04-29T23:28:27.771Z,9.80
2023-04-29T23:31:36.681Z,11.60
2023-04-29T23:34:46.149Z,8.30
2023-04-29T23:37:55.837Z,10.30
2023-04-29T23:41:04.888Z,9.60
2023-04-29T23:44:13.730Z,11.50
2023-04-29T23:47:24.344Z,7.70
2023-04-29T23:50:32.607Z,7.20
2023-04-29T23:53:42.337Z,8.40
2023-04-29T23:56:50.519Z,7.90
